createdAt,value
2017-12-01T00:00:58.392Z,35.20
2017-12-01T00:01:58.367Z,34.80
2017-12-01T00:02:58.361Z,36.30
2017-12-01T00:03:58.328Z,34.00
2017-12-01T00:04:58.302Z,35.40
2017-12-01T00:05:58.283Z,35.60
2017-12-01T00:06:58.264Z,36.70
2017-12-01T00:07:58.242Z,36.60
2017-12-01T00:08:58.219Z,35.60
2017-12-01T00:09:58.205Z,36.60
2017-12-01T00:10:58.181Z,36.80
2017-12-01T00:11:58.160Z,37.20
2017-12-01T00:12:58.135Z,37.60
2017-12-01T00:13:58.114Z,36.20
2017-12-01T00:14:58.086Z,36.90
2017-12-01T00:15:58.074Z,36.90
2017-12-01T00:16:58.051Z,37.30
2017-12-01T00:17:58.029Z,38.90
2017-12-01T00:18:58.010Z,35.80
2017-12-01T00:19:57.984Z,37.50
2017-12-01T00:20:57.964Z,38.30
2017-12-01T00:21:57.946Z,37.80
2017-12-01T00:22:57.922Z,38.00
2017-12-01T00:23:57.900Z,37.30
2017-12-01T00:24:57.885Z,37.50
2017-12-01T00:25:57.858Z,39.50
2017-12-01T00:26:57.835Z,39.20
2017-12-01T00:27:57.827Z,38.90
2017-12-01T00:28:57.792Z,38.70
2017-12-01T00:29:57.771Z,38.10
2017-12-01T00:30:57.751Z,38.70
2017-12-01T00:31:57.730Z,39.20
2017-12-01T00:32:57.708Z,38.00
2017-12-01T00:33:57.681Z,40.60
2017-12-01T00:34:57.666Z,38.50
2017-12-01T00:35:57.697Z,39.20
2017-12-01T00:36:57.624Z,37.50
2017-12-01T00:37:57.626Z,37.80
2017-12-01T00:38:57.623Z,39.60
2017-12-01T00:39:57.559Z,39.10
2017-12-01T00:40:57.557Z,39.30
2017-12-01T00:41:57.516Z,38.80
2017-12-01T00:42:57.500Z,37.90
2017-12-01T00:43:57.473Z,38.20
2017-12-01T00:44:57.451Z,39.00
2017-12-01T00:45:57.430Z,39.20
2017-12-01T00:46:57.447Z,38.00
2017-12-01T00:47:57.386Z,37.90
2017-12-01T00:48:57.368Z,39.20
2017-12-01T00:49:57.346Z,38.30
2017-12-01T00:50:57.322Z,38.50
2017-12-01T00:51:57.309Z,39.10
2017-12-01T00:52:57.284Z,38.00
2017-12-01T00:53:57.262Z,37.80
2017-12-01T00:54:57.240Z,39.50
2017-12-01T00:55:57.216Z,38.10
2017-12-01T00:56:57.200Z,37.90
2017-12-01T00:57:57.184Z,37.80
2017-12-01T00:58:57.151Z,37.30
2017-12-01T00:59:57.136Z,36.40
2017-12-01T01:00:57.103Z,37.20
2017-12-01T01:01:57.094Z,39.50
2017-12-01T01:02:57.071Z,38.20
2017-12-01T01:03:57.046Z,38.00
2017-12-01T01:04:57.026Z,37.30
2017-12-01T01:05:56.998Z,37.20
2017-12-01T01:06:56.985Z,38.00
2017-12-01T01:07:56.964Z,37.10
2017-12-01T01:08:56.941Z,36.70
2017-12-01T01:09:56.918Z,37.20
2017-12-01T01:10:56.898Z,37.90
2017-12-01T01:11:56.877Z,36.80
2017-12-01T01:12:56.852Z,38.70
2017-12-01T01:13:56.834Z,38.00
2017-12-01T01:14:56.814Z,38.50
2017-12-01T01:15:56.790Z,39.10
2017-12-01T01:16:56.771Z,37.10
2017-12-01T01:17:56.749Z,37.10
2017-12-01T01:18:56.731Z,38.70
2017-12-01T01:19:56.706Z,38.70
2017-12-01T01:20:56.685Z,37.40
2017-12-01T01:21:56.663Z,37.70
2017-12-01T01:22:56.640Z,37.30
2017-12-01T01:23:56.619Z,36.70
2017-12-01T01:24:56.604Z,38.50
2017-12-01T01:25:56.575Z,37.80
2017-12-01T01:26:56.556Z,38.20
2017-12-01T01:27:56.533Z,35.90
2017-12-01T01:28:56.511Z,35.60
2017-12-01T01:29:56.507Z,37.20
2017-12-01T01:30:56.474Z,36.30
2017-12-01T01:31:56.442Z,37.50
2017-12-01T01:32:56.425Z,37.80
2017-12-01T01:33:56.406Z,37.70
2017-12-01T01:34:56.382Z,37.40
2017-12-01T01:35:56.358Z,36.70
2017-12-01T01:36:56.344Z,36.90
2017-12-01T01:37:56.320Z,36.90
2017-12-01T01:38:56.297Z,36.70
2017-12-01T01:39:56.275Z,35.90
2017-12-01T01:40:56.254Z,36.20
2017-12-01T01:41:56.232Z,36.60
2017-12-01T01:42:56.231Z,35.60
2017-12-01T01:43:56.212Z,39.30
2017-12-01T01:44:56.165Z,38.50
2017-12-01T01:45:56.145Z,37.00
2017-12-01T01:46:56.130Z,36.00
2017-12-01T01:47:56.104Z,36.10
2017-12-01T01:48:56.081Z,35.40
2017-12-01T01:49:56.061Z,36.30
2017-12-01T01:50:56.040Z,36.80
2017-12-01T01:51:56.021Z,35.40
2017-12-01T01:52:55.998Z,34.60
2017-12-01T01:53:55.980Z,35.90
2017-12-01T01:54:55.956Z,34.20
2017-12-01T01:55:55.935Z,34.90
2017-12-01T01:56:55.910Z,34.10
2017-12-01T01:57:55.892Z,35.60
2017-12-01T01:58:55.868Z,35.40
2017-12-01T01:59:55.846Z,34.00
2017-12-01T02:00:55.834Z,35.40
2017-12-01T02:01:55.820Z,35.10
2017-12-01T02:02:55.783Z,33.70
2017-12-01T02:03:55.761Z,34.40
2017-12-01T02:04:55.747Z,33.20
2017-12-01T02:05:55.743Z,34.40
2017-12-01T02:06:55.697Z,34.00
2017-12-01T02:07:55.673Z,33.40
2017-12-01T02:08:55.653Z,34.20
2017-12-01T02:09:55.624Z,33.10
2017-12-01T02:10:55.603Z,32.70
2017-12-01T02:11:55.595Z,33.20
2017-12-01T02:12:55.567Z,37.60
2017-12-01T02:13:55.551Z,36.30
2017-12-01T02:14:55.530Z,39.20
2017-12-01T02:15:55.505Z,38.20
2017-12-01T02:16:55.490Z,35.30
2017-12-01T02:17:55.461Z,39.50
2017-12-01T02:18:55.440Z,35.70
2017-12-01T02:19:55.418Z,38.90
2017-12-01T02:20:55.399Z,36.10
2017-12-01T02:21:55.381Z,35.40
2017-12-01T02:22:55.355Z,37.50
2017-12-01T02:23:55.332Z,38.00
2017-12-01T02:24:55.313Z,34.20
2017-12-01T02:25:55.291Z,34.90
2017-12-01T02:26:55.273Z,36.70
2017-12-01T02:27:55.248Z,36.70
2017-12-01T02:28:55.229Z,33.70
2017-12-01T02:29:55.206Z,35.50
2017-12-01T02:30:55.187Z,33.60
2017-12-01T02:31:55.162Z,36.50
2017-12-01T02:32:55.143Z,33.80
2017-12-01T02:33:55.121Z,34.70
2017-12-01T02:34:55.100Z,37.70
2017-12-01T02:35:55.079Z,37.90
2017-12-01T02:36:55.057Z,34.60
2017-12-01T02:37:55.034Z,34.70
2017-12-01T02:38:55.012Z,34.60
2017-12-01T02:39:54.993Z,33.40
2017-12-01T02:40:54.971Z,34.40
2017-12-01T02:41:54.950Z,33.60
2017-12-01T02:42:54.929Z,32.80
2017-12-01T02:43:54.906Z,32.50
2017-12-01T02:44:54.886Z,33.80
2017-12-01T02:45:54.864Z,32.80
2017-12-01T02:46:54.846Z,34.60
2017-12-01T02:47:54.821Z,31.10
2017-12-01T02:48:54.800Z,35.20
2017-12-01T02:49:54.779Z,35.20
2017-12-01T02:50:54.759Z,35.00
2017-12-01T02:51:54.740Z,34.20
2017-12-01T02:52:54.716Z,34.70
2017-12-01T02:53:54.696Z,38.40
2017-12-01T02:54:54.673Z,41.50
2017-12-01T02:55:54.650Z,38.00
2017-12-01T02:56:54.628Z,36.20
2017-12-01T02:57:54.609Z,37.50
2017-12-01T02:58:54.588Z,35.90
2017-12-01T02:59:54.566Z,34.20
2017-12-01T03:00:54.545Z,33.60
2017-12-01T03:01:54.523Z,34.90
2017-12-01T03:02:54.507Z,33.90
2017-12-01T03:03:54.486Z,33.70
2017-12-01T03:04:54.458Z,32.70
2017-12-01T03:05:54.441Z,33.30
2017-12-01T03:06:54.414Z,33.70
2017-12-01T03:07:54.395Z,32.90
2017-12-01T03:08:54.373Z,34.20
2017-12-01T03:09:54.353Z,34.10
2017-12-01T03:10:54.336Z,32.40
2017-12-01T03:11:54.307Z,33.20
2017-12-01T03:12:54.288Z,33.50
2017-12-01T03:13:54.264Z,34.60
2017-12-01T03:14:54.246Z,32.50
2017-12-01T03:15:54.226Z,33.60
2017-12-01T03:16:54.204Z,32.90
2017-12-01T03:17:54.182Z,33.20
2017-12-01T03:18:54.159Z,33.90
2017-12-01T03:19:54.138Z,32.90
2017-12-01T03:20:54.128Z,33.60
2017-12-01T03:21:54.099Z,35.20
2017-12-01T03:22:54.074Z,48.20
2017-12-01T03:23:54.055Z,42.00
2017-12-01T03:24:54.032Z,36.00
2017-12-01T03:25:54.012Z,36.90
2017-12-01T03:26:53.990Z,36.50
2017-12-01T03:27:53.967Z,37.30
2017-12-01T03:28:53.947Z,35.80
2017-12-01T03:29:53.926Z,34.80
2017-12-01T03:30:53.909Z,35.60
2017-12-01T03:31:53.884Z,34.20
2017-12-01T03:32:53.862Z,36.10
2017-12-01T03:33:53.844Z,36.10
2017-12-01T03:34:53.821Z,36.80
2017-12-01T03:35:53.799Z,35.70
2017-12-01T03:36:53.777Z,35.60
2017-12-01T03:37:53.759Z,39.60
2017-12-01T03:38:53.734Z,38.50
2017-12-01T03:39:53.713Z,39.00
2017-12-01T03:40:53.691Z,36.50
2017-12-01T03:41:53.669Z,38.30
2017-12-01T03:42:53.649Z,40.10
2017-12-01T03:43:53.630Z,40.10
2017-12-01T03:44:53.609Z,39.20
2017-12-01T03:45:53.585Z,39.20
2017-12-01T03:46:53.563Z,35.40
2017-12-01T03:47:53.534Z,35.90
2017-12-01T03:48:53.517Z,34.20
2017-12-01T03:49:53.490Z,34.60
2017-12-01T03:50:53.478Z,33.70
2017-12-01T03:51:53.461Z,34.10
2017-12-01T03:52:53.433Z,35.80
2017-12-01T03:53:53.415Z,35.00
2017-12-01T03:54:53.393Z,36.70
2017-12-01T03:55:53.371Z,35.60
2017-12-01T03:56:53.347Z,36.10
2017-12-01T03:57:53.328Z,33.90
2017-12-01T03:58:53.340Z,35.10
2017-12-01T03:59:53.286Z,35.10
2017-12-01T04:00:53.277Z,34.40
2017-12-01T04:01:53.278Z,34.90
2017-12-01T04:02:53.222Z,35.00
2017-12-01T04:03:53.199Z,33.30
2017-12-01T04:04:53.178Z,37.50
2017-12-01T04:05:53.158Z,34.80
2017-12-01T04:06:53.137Z,35.90
2017-12-01T04:07:53.113Z,36.00
2017-12-01T04:08:53.096Z,33.50
2017-12-01T04:09:53.075Z,33.20
2017-12-01T04:10:53.050Z,35.30
2017-12-01T04:11:53.028Z,35.40
2017-12-01T04:12:53.015Z,35.70
2017-12-01T04:13:52.986Z,35.20
2017-12-01T04:14:52.966Z,32.50
2017-12-01T04:15:52.941Z,34.80
2017-12-01T04:16:52.922Z,33.20
2017-12-01T04:17:52.905Z,33.30
2017-12-01T04:18:52.880Z,34.50
2017-12-01T04:19:52.857Z,33.00
2017-12-01T04:20:52.835Z,34.40
2017-12-01T04:21:52.820Z,35.10
2017-12-01T04:22:52.793Z,34.40
2017-12-01T04:23:52.771Z,35.30
2017-12-01T04:24:52.751Z,36.40
2017-12-01T04:25:52.729Z,33.90
2017-12-01T04:26:52.707Z,34.60
2017-12-01T04:27:52.686Z,34.70
2017-12-01T04:28:52.665Z,33.40
2017-12-01T04:29:52.651Z,35.30
2017-12-01T04:30:52.619Z,35.20
2017-12-01T04:31:52.600Z,36.80
2017-12-01T04:32:52.616Z,34.50
2017-12-01T04:33:52.565Z,34.50
2017-12-01T04:34:52.535Z,36.20
2017-12-01T04:35:52.514Z,35.50
2017-12-01T04:36:52.495Z,36.20
2017-12-01T04:37:52.469Z,35.50
2017-12-01T04:38:52.461Z,36.20
2017-12-01T04:39:52.432Z,35.20
2017-12-01T04:40:52.404Z,35.10
2017-12-01T04:41:52.384Z,37.20
2017-12-01T04:42:52.362Z,36.50
2017-12-01T04:43:52.342Z,37.80
2017-12-01T04:44:52.322Z,35.70
2017-12-01T04:45:52.330Z,37.20
2017-12-01T04:46:52.274Z,36.60
2017-12-01T04:47:52.259Z,36.00
2017-12-01T04:48:52.236Z,38.20
2017-12-01T04:49:52.217Z,36.30
2017-12-01T04:50:52.189Z,36.80
2017-12-01T04:51:52.168Z,37.70
2017-12-01T04:52:52.138Z,38.20
2017-12-01T04:53:52.128Z,37.10
2017-12-01T04:54:52.106Z,37.10
2017-12-01T04:55:52.076Z,37.30
2017-12-01T04:56:52.056Z,37.60
2017-12-01T04:57:52.037Z,36.30
2017-12-01T04:58:52.014Z,34.80
2017-12-01T04:59:51.996Z,36.50
2017-12-01T05:00:51.970Z,36.60
2017-12-01T05:01:51.953Z,35.30
2017-12-01T05:02:51.933Z,37.00
2017-12-01T05:03:51.910Z,35.60
2017-12-01T05:04:51.878Z,36.20
2017-12-01T05:05:51.883Z,35.10
2017-12-01T05:06:51.872Z,36.00
2017-12-01T05:07:51.821Z,37.20
2017-12-01T05:08:51.807Z,36.60
2017-12-01T05:09:51.789Z,35.00
2017-12-01T05:10:51.764Z,35.10
2017-12-01T05:11:51.747Z,36.50
2017-12-01T05:12:51.733Z,37.60
2017-12-01T05:13:51.690Z,36.50
2017-12-01T05:14:51.668Z,35.40
2017-12-01T05:15:51.675Z,34.60
2017-12-01T05:16:51.629Z,35.80
2017-12-01T05:17:51.613Z,35.00
2017-12-01T05:18:51.585Z,37.90
2017-12-01T05:19:51.562Z,35.90
2017-12-01T05:20:51.596Z,36.30
2017-12-01T05:21:51.520Z,37.30
2017-12-01T05:22:51.497Z,37.40
2017-12-01T05:23:51.480Z,36.60
2017-12-01T05:24:51.470Z,36.60
2017-12-01T05:25:51.451Z,35.50
2017-12-01T05:26:51.410Z,36.30
2017-12-01T05:27:51.410Z,36.10
2017-12-01T05:28:51.368Z,35.20
2017-12-01T05:29:51.351Z,35.90
2017-12-01T05:30:51.326Z,34.40
2017-12-01T05:31:51.315Z,35.20
2017-12-01T05:32:51.305Z,34.80
2017-12-01T05:33:51.258Z,35.70
2017-12-01T05:34:51.233Z,34.20
2017-12-01T05:35:51.213Z,36.00
2017-12-01T05:36:51.222Z,33.00
2017-12-01T05:37:51.180Z,33.60
2017-12-01T05:38:51.171Z,33.10
2017-12-01T05:39:51.124Z,33.40
2017-12-01T05:40:51.107Z,34.40
2017-12-01T05:41:51.082Z,34.80
2017-12-01T05:42:51.066Z,34.10
2017-12-01T05:43:51.042Z,33.20
2017-12-01T05:44:51.023Z,34.00
2017-12-01T05:45:50.997Z,33.80
2017-12-01T05:46:50.970Z,32.20
2017-12-01T05:47:50.961Z,32.70
2017-12-01T05:48:50.941Z,33.20
2017-12-01T05:49:50.904Z,33.10
2017-12-01T05:50:50.892Z,33.70
2017-12-01T05:51:50.875Z,34.10
2017-12-01T05:52:50.843Z,34.60
2017-12-01T05:53:50.829Z,32.40
2017-12-01T05:54:50.797Z,34.40
2017-12-01T05:55:50.811Z,35.30
2017-12-01T05:56:50.750Z,34.10
2017-12-01T05:57:50.743Z,33.90
2017-12-01T05:58:50.713Z,34.40
2017-12-01T05:59:50.705Z,33.30
2017-12-01T06:00:50.677Z,34.30
2017-12-01T06:01:50.649Z,32.70
2017-12-01T06:02:50.638Z,33.30
2017-12-01T06:03:50.623Z,34.20
2017-12-01T06:04:50.583Z,34.50
2017-12-01T06:05:50.559Z,32.80
2017-12-01T06:06:50.537Z,31.10
2017-12-01T06:07:50.529Z,33.00
2017-12-01T06:08:50.506Z,34.30
2017-12-01T06:09:50.469Z,29.50
2017-12-01T06:10:50.452Z,31.30
2017-12-01T06:11:50.459Z,32.20
2017-12-01T06:12:50.405Z,31.80
2017-12-01T06:13:50.383Z,31.20
2017-12-01T06:14:50.379Z,32.10
2017-12-01T06:15:50.343Z,33.40
2017-12-01T06:16:50.330Z,31.90
2017-12-01T06:17:50.309Z,33.20
2017-12-01T06:18:50.282Z,32.80
2017-12-01T06:19:50.262Z,31.50
2017-12-01T06:20:50.249Z,31.50
2017-12-01T06:21:50.214Z,31.90
2017-12-01T06:22:50.187Z,33.40
2017-12-01T06:23:50.189Z,31.40
2017-12-01T06:24:50.153Z,31.70
2017-12-01T06:25:50.133Z,32.30
2017-12-01T06:26:50.108Z,32.00
2017-12-01T06:27:50.085Z,32.60
2017-12-01T06:28:50.049Z,32.10
2017-12-01T06:29:50.056Z,32.80
2017-12-01T06:30:50.014Z,33.40
2017-12-01T06:31:50.009Z,33.80
2017-12-01T06:32:49.972Z,34.70
2017-12-01T06:33:49.940Z,33.00
2017-12-01T06:34:49.979Z,32.40
2017-12-01T06:35:49.931Z,34.00
2017-12-01T06:36:49.878Z,34.00
2017-12-01T06:37:49.848Z,34.90
2017-12-01T06:38:49.843Z,32.60
2017-12-01T06:39:49.839Z,33.40
2017-12-01T06:40:49.797Z,34.20
2017-12-01T06:41:49.819Z,36.20
2017-12-01T06:42:49.763Z,34.80
2017-12-01T06:43:49.736Z,34.30
2017-12-01T06:44:49.726Z,33.30
2017-12-01T06:45:49.684Z,33.20
2017-12-01T06:46:49.684Z,34.00
2017-12-01T06:47:49.644Z,34.10
2017-12-01T06:48:49.621Z,34.40
2017-12-01T06:49:49.612Z,34.80
2017-12-01T06:50:49.571Z,34.50
2017-12-01T06:51:49.557Z,33.70
2017-12-01T06:52:49.534Z,35.50
2017-12-01T06:53:49.572Z,35.10
2017-12-01T06:54:49.494Z,36.50
2017-12-01T06:55:49.453Z,35.80
2017-12-01T06:56:49.451Z,36.60
2017-12-01T06:57:49.468Z,34.50
2017-12-01T06:58:49.397Z,34.70
2017-12-01T06:59:49.373Z,34.70
2017-12-01T07:00:49.355Z,36.60
2017-12-01T07:01:49.341Z,37.40
2017-12-01T07:02:49.303Z,35.60
2017-12-01T07:03:49.280Z,34.70
2017-12-01T07:04:49.258Z,34.90
2017-12-01T07:05:49.233Z,35.70
2017-12-01T07:06:49.218Z,36.30
2017-12-01T07:07:49.218Z,35.10
2017-12-01T07:08:49.195Z,37.20
2017-12-01T07:09:49.198Z,36.90
2017-12-01T07:10:49.128Z,37.10
2017-12-01T07:11:49.104Z,35.60
2017-12-01T07:12:49.086Z,33.80
2017-12-01T07:13:49.071Z,36.20
2017-12-01T07:14:49.039Z,35.10
2017-12-01T07:15:49.013Z,36.00
2017-12-01T07:16:49.013Z,36.60
2017-12-01T07:17:48.974Z,41.30
2017-12-01T07:18:49.006Z,38.80
2017-12-01T07:19:48.936Z,37.90
2017-12-01T07:20:48.913Z,35.70
2017-12-01T07:21:48.895Z,37.60
2017-12-01T07:22:48.876Z,34.90
2017-12-01T07:23:48.837Z,36.50
2017-12-01T07:24:48.820Z,34.10
2017-12-01T07:25:48.798Z,37.30
2017-12-01T07:26:48.822Z,35.70
2017-12-01T07:27:48.774Z,37.30
2017-12-01T07:28:48.766Z,36.20
2017-12-01T07:29:48.702Z,34.90
2017-12-01T07:30:48.691Z,35.60
2017-12-01T07:31:48.671Z,36.10
2017-12-01T07:32:48.672Z,34.40
2017-12-01T07:33:48.616Z,37.50
2017-12-01T07:34:48.595Z,35.10
2017-12-01T07:35:48.581Z,37.30
2017-12-01T07:36:48.555Z,36.00
2017-12-01T07:37:48.546Z,39.80
2017-12-01T07:38:48.520Z,35.60
2017-12-01T07:39:48.489Z,35.20
2017-12-01T07:40:48.483Z,36.60
2017-12-01T07:41:48.446Z,37.00
2017-12-01T07:42:48.426Z,36.40
2017-12-01T07:43:48.407Z,38.30
2017-12-01T07:44:48.390Z,36.40
2017-12-01T07:45:48.355Z,36.70
2017-12-01T07:46:48.337Z,36.40
2017-12-01T07:47:48.309Z,36.90
2017-12-01T07:48:48.312Z,35.40
2017-12-01T07:49:48.262Z,37.70
2017-12-01T07:50:48.241Z,37.10
2017-12-01T07:51:48.281Z,36.70
2017-12-01T07:52:48.204Z,36.90
2017-12-01T07:53:48.184Z,37.40
2017-12-01T07:54:48.155Z,35.50
2017-12-01T07:55:48.137Z,36.10
2017-12-01T07:56:48.107Z,37.80
2017-12-01T07:57:48.100Z,36.90
2017-12-01T07:58:48.071Z,38.70
2017-12-01T07:59:48.047Z,36.40
2017-12-01T08:00:48.019Z,36.90
2017-12-01T08:01:48.006Z,35.20
2017-12-01T08:02:47.982Z,36.40
2017-12-01T08:03:47.956Z,36.50
2017-12-01T08:04:47.939Z,34.80
2017-12-01T08:05:47.906Z,36.60
2017-12-01T08:06:47.888Z,37.10
2017-12-01T08:07:47.868Z,35.70
2017-12-01T08:08:47.843Z,35.90
2017-12-01T08:09:47.830Z,37.40
2017-12-01T08:10:47.805Z,36.90
2017-12-01T08:11:47.778Z,35.10
2017-12-01T08:12:47.767Z,37.20
2017-12-01T08:13:47.736Z,38.10
2017-12-01T08:14:47.716Z,38.00
2017-12-01T08:15:47.690Z,35.90
2017-12-01T08:16:47.676Z,36.30
2017-12-01T08:17:47.656Z,36.40
2017-12-01T08:18:47.629Z,33.80
2017-12-01T08:19:47.615Z,33.80
2017-12-01T08:20:47.584Z,34.20
2017-12-01T08:21:47.567Z,35.20
2017-12-01T08:22:47.542Z,34.00
2017-12-01T08:23:47.520Z,37.70
2017-12-01T08:24:47.511Z,36.70
2017-12-01T08:25:47.473Z,37.10
2017-12-01T08:26:47.454Z,35.30
2017-12-01T08:27:47.431Z,35.60
2017-12-01T08:28:47.421Z,34.70
2017-12-01T08:29:47.381Z,35.90
2017-12-01T08:30:47.385Z,36.60
2017-12-01T08:31:47.343Z,35.70
2017-12-01T08:32:47.320Z,37.00
2017-12-01T08:33:47.307Z,36.10
2017-12-01T08:34:47.298Z,37.30
2017-12-01T08:35:47.292Z,36.40
2017-12-01T08:36:47.239Z,37.50
2017-12-01T08:37:47.217Z,36.30
2017-12-01T08:38:47.200Z,37.00
2017-12-01T08:39:47.171Z,36.40
2017-12-01T08:40:47.152Z,37.80
2017-12-01T08:41:47.130Z,35.90
2017-12-01T08:42:47.112Z,36.70
2017-12-01T08:43:47.100Z,38.80
2017-12-01T08:44:47.072Z,35.20
2017-12-01T08:45:47.041Z,37.10
2017-12-01T08:46:47.016Z,37.10
2017-12-01T08:47:46.995Z,38.50
2017-12-01T08:48:47.001Z,38.50
2017-12-01T08:49:46.977Z,39.30
2017-12-01T08:50:46.941Z,37.80
2017-12-01T08:51:46.932Z,39.00
2017-12-01T08:52:46.892Z,38.90
2017-12-01T08:53:46.887Z,38.60
2017-12-01T08:54:46.887Z,40.20
2017-12-01T08:55:46.852Z,36.90
2017-12-01T08:56:46.805Z,38.20
2017-12-01T08:57:46.799Z,39.30
2017-12-01T08:58:46.762Z,39.30
2017-12-01T08:59:46.739Z,40.60
2017-12-01T09:00:46.720Z,39.90
2017-12-01T09:01:46.697Z,40.40
2017-12-01T09:02:46.683Z,41.70
2017-12-01T09:03:46.646Z,39.00
2017-12-01T09:04:46.668Z,40.50
2017-12-01T09:05:46.626Z,39.90
2017-12-01T09:06:46.633Z,42.70
2017-12-01T09:07:46.606Z,40.80
2017-12-01T09:08:46.582Z,39.80
2017-12-01T09:09:46.542Z,42.50
2017-12-01T09:10:46.509Z,38.20
2017-12-01T09:11:46.477Z,37.20
2017-12-01T09:12:46.479Z,39.80
2017-12-01T09:13:46.495Z,40.10
2017-12-01T09:14:46.430Z,40.70
2017-12-01T09:15:46.402Z,40.20
2017-12-01T09:16:46.410Z,40.80
2017-12-01T09:17:46.381Z,39.80
2017-12-01T09:18:46.333Z,39.90
2017-12-01T09:19:46.325Z,39.90
2017-12-01T09:20:46.290Z,39.30
2017-12-01T09:21:46.297Z,39.10
2017-12-01T09:22:46.250Z,40.10
2017-12-01T09:23:46.252Z,38.50
2017-12-01T09:24:46.280Z,38.70
2017-12-01T09:25:46.220Z,41.40
2017-12-01T09:26:46.160Z,39.20
2017-12-01T09:27:46.161Z,41.50
2017-12-01T09:28:46.165Z,46.60
2017-12-01T09:29:46.100Z,41.90
2017-12-01T09:30:46.100Z,42.00
2017-12-01T09:31:46.104Z,40.00
2017-12-01T09:32:46.044Z,39.90
2017-12-01T09:33:46.012Z,39.70
2017-12-01T09:34:45.990Z,39.50
2017-12-01T09:35:45.972Z,39.20
2017-12-01T09:36:45.953Z,40.00
2017-12-01T09:37:45.957Z,36.20
2017-12-01T09:38:45.913Z,35.70
2017-12-01T09:39:45.908Z,36.20
2017-12-01T09:40:45.860Z,35.90
2017-12-01T09:41:45.856Z,35.50
2017-12-01T09:42:45.813Z,35.70
2017-12-01T09:43:45.803Z,35.60
2017-12-01T09:44:45.884Z,36.20
2017-12-01T09:45:45.756Z,35.90
2017-12-01T09:46:45.745Z,34.10
2017-12-01T09:47:45.706Z,35.60
2017-12-01T09:48:45.704Z,36.00
2017-12-01T09:49:45.678Z,36.60
2017-12-01T09:50:45.686Z,35.00
2017-12-01T09:51:45.668Z,34.70
2017-12-01T09:52:46.057Z,34.00
2017-12-01T09:53:45.760Z,33.10
2017-12-01T09:54:45.628Z,33.50
2017-12-01T09:55:45.542Z,31.40
2017-12-01T09:56:45.528Z,30.40
2017-12-01T09:57:45.516Z,31.80
2017-12-01T09:58:45.484Z,35.50
2017-12-01T09:59:45.473Z,34.40
2017-12-01T10:00:45.441Z,34.90
2017-12-01T10:01:45.418Z,36.00
2017-12-01T10:02:45.412Z,34.60
2017-12-01T10:03:45.379Z,31.80
2017-12-01T10:04:45.361Z,27.10
2017-12-01T10:05:45.361Z,25.60
2017-12-01T10:06:45.339Z,23.70
2017-12-01T10:07:45.291Z,26.10
2017-12-01T10:08:45.292Z,28.20
2017-12-01T10:09:45.286Z,28.50
2017-12-01T10:10:45.233Z,30.80
2017-12-01T10:11:45.229Z,29.50
2017-12-01T10:12:45.245Z,33.60
2017-12-01T10:13:45.177Z,33.20
2017-12-01T10:14:45.166Z,33.80
2017-12-01T10:15:45.123Z,30.00
2017-12-01T10:16:45.107Z,31.10
2017-12-01T10:17:45.087Z,33.60
2017-12-01T10:18:45.109Z,31.10
2017-12-01T10:19:45.072Z,29.00
2017-12-01T10:20:45.249Z,28.10
2017-12-01T10:21:45.305Z,27.60
2017-12-01T10:22:45.024Z,24.00
2017-12-01T10:23:45.244Z,27.50
2017-12-01T10:24:45.076Z,28.10
2017-12-01T10:25:45.014Z,31.30
2017-12-01T10:26:44.895Z,31.10
2017-12-01T10:27:44.884Z,32.60
2017-12-01T10:28:44.857Z,36.70
2017-12-01T10:29:44.841Z,30.10
2017-12-01T10:30:44.817Z,31.00
2017-12-01T10:31:44.813Z,28.10
2017-12-01T10:32:44.788Z,26.20
2017-12-01T10:33:44.776Z,29.70
2017-12-01T10:34:44.752Z,29.00
2017-12-01T10:35:44.734Z,28.70
2017-12-01T10:36:44.710Z,28.70
2017-12-01T10:37:44.679Z,30.20
2017-12-01T10:38:44.649Z,29.70
2017-12-01T10:39:44.643Z,30.90
2017-12-01T10:40:44.690Z,30.70
2017-12-01T10:41:44.613Z,29.60
2017-12-01T10:42:44.625Z,30.20
2017-12-01T10:43:44.558Z,29.60
2017-12-01T10:44:44.567Z,29.10
2017-12-01T10:45:44.523Z,28.90
2017-12-01T10:46:44.498Z,29.60
2017-12-01T10:47:44.476Z,29.50
2017-12-01T10:48:44.474Z,29.50
2017-12-01T10:49:44.433Z,29.30
2017-12-01T10:50:44.421Z,29.10
2017-12-01T10:51:44.421Z,28.30
2017-12-01T10:52:44.395Z,28.20
2017-12-01T10:53:44.373Z,29.20
2017-12-01T10:54:44.362Z,27.60
2017-12-01T10:55:44.317Z,29.20
2017-12-01T10:56:44.337Z,29.60
2017-12-01T10:57:44.280Z,31.60
2017-12-01T10:58:44.270Z,30.20
2017-12-01T10:59:44.240Z,29.70
2017-12-01T11:00:44.211Z,31.20
2017-12-01T11:01:44.198Z,29.90
2017-12-01T11:02:44.174Z,30.10
2017-12-01T11:03:44.171Z,31.70
2017-12-01T11:04:44.129Z,31.20
2017-12-01T11:05:44.120Z,30.60
2017-12-01T11:06:44.092Z,33.10
2017-12-01T11:07:44.078Z,30.80
2017-12-01T11:08:44.063Z,28.20
2017-12-01T11:09:44.031Z,29.40
2017-12-01T11:10:44.009Z,28.30
2017-12-01T11:11:44.045Z,28.80
2017-12-01T11:12:43.990Z,28.80
2017-12-01T11:13:43.960Z,28.90
2017-12-01T11:14:43.933Z,27.80
2017-12-01T11:15:43.913Z,25.00
2017-12-01T11:16:43.918Z,24.40
2017-12-01T11:17:43.880Z,23.90
2017-12-01T11:18:43.876Z,23.30
2017-12-01T11:19:43.844Z,23.00
2017-12-01T11:20:43.833Z,24.00
2017-12-01T11:21:43.825Z,21.40
2017-12-01T11:22:43.775Z,20.30
2017-12-01T11:23:43.761Z,22.30
2017-12-01T11:24:43.748Z,20.40
2017-12-01T11:25:43.719Z,20.40
2017-12-01T11:26:43.728Z,19.10
2017-12-01T11:27:43.674Z,17.20
2017-12-01T11:28:43.664Z,18.40
2017-12-01T11:29:43.697Z,17.10
2017-12-01T11:30:43.633Z,15.30
2017-12-01T11:31:43.586Z,15.70
2017-12-01T11:32:43.592Z,17.20
2017-12-01T11:33:43.559Z,18.80
2017-12-01T11:34:43.563Z,17.60
2017-12-01T11:35:43.514Z,18.70
2017-12-01T11:36:43.591Z,18.90
2017-12-01T11:37:43.505Z,17.00
2017-12-01T11:38:43.474Z,16.00
2017-12-01T11:39:43.494Z,13.70
2017-12-01T11:40:43.512Z,15.10
2017-12-01T11:41:43.391Z,14.40
2017-12-01T11:42:43.397Z,14.30
2017-12-01T11:43:43.401Z,15.00
2017-12-01T11:44:43.410Z,15.50
2017-12-01T11:45:43.311Z,17.50
2017-12-01T11:46:43.323Z,15.20
2017-12-01T11:47:43.341Z,13.80
2017-12-01T11:48:43.242Z,17.00
2017-12-01T11:49:43.238Z,15.50
2017-12-01T11:50:43.219Z,16.70
2017-12-01T11:51:43.212Z,16.20
2017-12-01T11:52:43.182Z,18.40
2017-12-01T11:53:43.165Z,18.30
2017-12-01T11:54:43.126Z,18.00
2017-12-01T11:55:43.101Z,17.10
2017-12-01T11:56:43.091Z,16.50
2017-12-01T11:57:43.078Z,14.40
2017-12-01T11:58:43.045Z,13.50
2017-12-01T11:59:43.052Z,13.60
2017-12-01T12:00:43.048Z,14.00
2017-12-01T12:01:43.025Z,13.40
2017-12-01T12:02:43.016Z,13.80
2017-12-01T12:03:42.953Z,15.00
2017-12-01T12:04:42.946Z,15.90
2017-12-01T12:05:42.908Z,16.30
2017-12-01T12:06:42.917Z,15.00
2017-12-01T12:07:42.867Z,16.00
2017-12-01T12:08:42.854Z,17.60
2017-12-01T12:09:42.846Z,15.70
2017-12-01T12:10:42.867Z,14.90
2017-12-01T12:11:42.797Z,15.20
2017-12-01T12:12:42.876Z,15.90
2017-12-01T12:13:42.751Z,16.40
2017-12-01T12:14:42.786Z,18.00
2017-12-01T12:15:42.717Z,16.90
2017-12-01T12:16:42.716Z,16.30
2017-12-01T12:17:42.678Z,14.00
2017-12-01T12:18:42.662Z,11.40
2017-12-01T12:19:42.642Z,10.80
2017-12-01T12:20:42.639Z,12.30
2017-12-01T12:21:42.666Z,12.40
2017-12-01T12:22:42.572Z,12.30
2017-12-01T12:23:42.556Z,13.20
2017-12-01T12:24:42.551Z,11.90
2017-12-01T12:25:42.518Z,12.70
2017-12-01T12:26:42.504Z,12.60
2017-12-01T12:27:42.482Z,13.20
2017-12-01T12:28:42.477Z,13.70
2017-12-01T12:29:42.458Z,14.80
2017-12-01T12:30:42.419Z,16.50
2017-12-01T12:31:42.466Z,18.00
2017-12-01T12:32:42.422Z,16.20
2017-12-01T12:33:42.365Z,16.20
2017-12-01T12:34:42.371Z,16.90
2017-12-01T12:35:42.347Z,17.70
2017-12-01T12:36:42.299Z,17.60
2017-12-01T12:37:42.299Z,17.00
2017-12-01T12:38:42.269Z,19.00
2017-12-01T12:39:42.258Z,17.90
2017-12-01T12:40:42.289Z,18.90
2017-12-01T12:41:42.203Z,19.20
2017-12-01T12:42:42.201Z,19.00
2017-12-01T12:43:42.183Z,19.30
2017-12-01T12:44:42.144Z,24.50
2017-12-01T12:45:42.162Z,24.70
2017-12-01T12:46:42.108Z,24.80
2017-12-01T12:47:42.097Z,25.90
2017-12-01T12:48:42.109Z,26.70
2017-12-01T12:49:42.056Z,26.90
2017-12-01T12:50:42.043Z,25.50
2017-12-01T12:51:42.034Z,27.80
2017-12-01T12:52:42.054Z,26.50